Panama City, FL (32411)

3:32 PM CST on December 21, 2014 (GMT -0600)
North Lagoon @ Oakbrook Ln | Change Station
CLOSE
Current Station
Personal Weather Station
Location: Panama City Beach, FL
Elevation: 9 ft
Nearby Weather Stations

Elev 9 ft 30.16 °N, 85.76 °W | Updated 1 second ago

Overcast
Overcast
56.3 °F
Feels Like 56.3 °F
N
0.9
Wind Variable Wind from ENE
Gusts 3.4 mph

Today
High -- | Low -- °F
--% Chance of Precip.
Yesterday
High -- | Low -- °F
Precip. -- in
6:34 AM 4:47 PM
Waning Crescent, 0% visible
Pressure 30.03 in
Visibility 4.0 miles
Clouds Overcast 300 ft
Dew Point 54 °F
Humidity 93%
Rainfall 0.02 in
Snow Depth Not available.
UV 0 out of 12
Pollen 2.70 out of 12
Air Quality Not available.
Flu Activity Not available.
METAR KPAM 212058Z AUTO 05004KT 4SM -RA BR OVC003 14/14 A3002 RMK AO2 RAB2035 SLP169 P0000 60000 T01380138 55015 $

More Conditions Fewer Conditions

Pressure 30.03 in
Visibility 4.0 miles
Clouds Overcast 300 ft
Dew Point 54 °F
Humidity 93%
Rainfall 0.02 in
Snow Depth Not available.
UV 0 out of 12
Pollen 2.70 out of 12
Air Quality Not available.
Flu Activity Not available.
METAR KPAM 212058Z AUTO 05004KT 4SM -RA BR OVC003 14/14 A3002 RMK AO2 RAB2035 SLP169 P0000 60000 T01380138 55015 $

More Conditions Fewer Conditions

10-Day Weather Forecast

Almanac

Astronomy

Dec. 21, 2014 Rise Set
Actual Time
Civil Twilight
Nautical Twilight
Astronomical Twilight
Moon
Length of Visible Light
Length of Day
Tomorrow will be .
, % of the Moon is Illuminated

Today's Extremes

State Highs State Lows

Community

WunderPhotos

Upload Photos

1,779,486 photos uploaded!

WunderBlogs® & News

Nearby

Air Quality

  Air Quality AQ Index Pollutant
Not available.

Snow Depth

Station Depth Elevation

Earthquake Activity

City Distance Mag. Time & Date
Minimum magnitude displayed is 2.5.

Coastal Water Temperatures

Place Temperature

Nearby Weather Stations